Time;durP1;ratioP1;P1;durP2;ratioP2;P2;SDS_P1;SDS_P2;PMS_P1;PMS_P2;Temp;Humidity;BMP_temperature;BMP_pressure;BME280_temperature;BME280_humidity;BME280_pressure;Samples;Min_cycle;Max_cycle;Signal;HPM_P1;HPM_P2
2023/07/03 00:00:39;;;;;;;54.07;9.93;;;26.50;44.80;;;;;;5045339;28;20192;-63
2023/07/03 00:03:06;;;;;;;30.87;7.70;;;26.50;44.90;;;;;;5040199;28;20696;-63
2023/07/03 00:05:35;;;;;;;35.03;7.87;;;26.50;44.90;;;;;;5034798;28;20204;-64
2023/07/03 00:08:01;;;;;;;36.47;8.23;;;26.50;45.00;;;;;;5042181;28;20208;-64
2023/07/03 00:10:29;;;;;;;39.47;8.87;;;26.50;45.00;;;;;;5046692;28;20584;-63
2023/07/03 00:12:56;;;;;;;37.60;8.67;;;26.50;45.00;;;;;;5043072;28;20244;-63
2023/07/03 00:15:22;;;;;;;54.50;10.00;;;26.40;44.90;;;;;;5043356;28;20200;-63
2023/07/03 00:17:51;;;;;;;40.97;9.00;;;26.40;45.00;;;;;;5042234;28;20215;-64
2023/07/03 00:20:18;;;;;;;35.23;8.43;;;26.40;45.60;;;;;;5047310;28;20667;-64
2023/07/03 00:22:46;;;;;;;27.87;7.33;;;26.40;45.10;;;;;;5042914;28;20283;-64
2023/07/03 00:25:13;;;;;;;46.67;10.00;;;26.40;45.10;;;;;;5047002;28;20203;-63
2023/07/03 00:27:40;;;;;;;38.20;8.07;;;26.40;45.10;;;;;;5046547;28;20664;-64
2023/07/03 00:30:08;;;;;;;31.00;8.10;;;26.40;45.10;;;;;;5047538;28;20210;-66
2023/07/03 00:32:35;;;;;;;62.10;10.33;;;26.40;45.30;;;;;;5042975;28;20721;-63
2023/07/03 00:35:03;;;;;;;29.97;7.20;;;26.40;45.30;;;;;;5048487;28;20208;-64
2023/07/03 00:37:30;;;;;;;32.40;7.87;;;26.40;45.30;;;;;;5050455;28;20212;-65
2023/07/03 00:39:57;;;;;;;27.67;6.97;;;26.40;45.30;;;;;;5051809;28;20517;-64
2023/07/03 00:42:25;;;;;;;57.23;10.20;;;26.40;45.40;;;;;;5048177;28;20199;-63
2023/07/03 00:44:52;;;;;;;30.70;7.63;;;26.40;45.40;;;;;;5047159;28;20196;-64
2023/07/03 00:47:19;;;;;;;30.23;8.43;;;26.40;45.40;;;;;;5050787;28;20204;-64
2023/07/03 00:49:46;;;;;;;38.77;8.83;;;26.30;45.40;;;;;;5051073;28;20215;-64
2023/07/03 00:52:15;;;;;;;42.13;8.93;;;26.30;45.30;;;;;;5051479;28;20226;-63
2023/07/03 00:54:43;;;;;;;43.83;8.80;;;26.30;45.40;;;;;;5044968;28;20196;-63
2023/07/03 00:57:13;;;;;;;30.40;8.17;;;26.30;45.30;;;;;;5050340;28;20687;-63
2023/07/03 00:59:41;;;;;;;38.47;8.47;;;26.30;45.50;;;;;;5039245;28;20204;-64
2023/07/03 01:02:12;;;;;;;33.17;8.50;;;26.30;45.30;;;;;;5047456;28;20657;-64
2023/07/03 01:04:45;;;;;;;39.80;8.80;;;26.30;45.40;;;;;;5030881;28;20208;-64
2023/07/03 01:07:17;;;;;;;35.10;8.13;;;26.30;45.50;;;;;;5041530;28;20200;-64
2023/07/03 01:09:49;;;;;;;43.90;9.07;;;26.30;45.50;;;;;;5046376;28;20263;-63
2023/07/03 01:12:17;;;;;;;35.93;8.40;;;26.20;45.50;;;;;;5051364;28;20254;-64
2023/07/03 01:14:45;;;;;;;41.63;8.90;;;26.30;45.50;;;;;;5043308;28;20199;-67
2023/07/03 01:17:14;;;;;;;37.50;8.47;;;26.30;45.60;;;;;;5049768;28;20224;-63
2023/07/03 01:19:45;;;;;;;57.07;10.30;;;26.30;45.60;;;;;;5047141;28;20215;-64
2023/07/03 01:22:21;;;;;;;36.47;8.70;;;26.30;45.60;;;;;;5048207;28;20208;-64
2023/07/03 01:24:54;;;;;;;46.60;9.43;;;26.20;45.60;;;;;;5050004;28;20211;-67
2023/07/03 01:27:25;;;;;;;36.73;8.20;;;26.20;45.60;;;;;;5044654;28;20770;-65
2023/07/03 01:29:52;;;;;;;34.70;8.23;;;26.30;45.70;;;;;;5051242;28;20194;-63
2023/07/03 01:32:22;;;;;;;33.77;8.33;;;26.20;45.70;;;;;;5050711;28;20235;-65
2023/07/03 01:34:53;;;;;;;44.03;9.37;;;26.20;45.80;;;;;;5042046;28;20200;-67
2023/07/03 01:37:24;;;;;;;41.23;8.73;;;26.20;45.80;;;;;;5049617;28;20216;-64
2023/07/03 01:39:53;;;;;;;47.40;9.87;;;26.20;45.90;;;;;;5036614;28;20228;-64
2023/07/03 01:42:22;;;;;;;33.23;8.17;;;26.20;45.90;;;;;;5030845;28;20209;-65
2023/07/03 01:44:49;;;;;;;29.40;9.10;;;26.20;45.90;;;;;;5045591;28;20202;-66
2023/07/03 01:47:16;;;;;;;37.33;8.47;;;26.20;45.90;;;;;;5050233;28;20215;-64
2023/07/03 01:49:43;;;;;;;40.60;8.97;;;26.20;45.90;;;;;;5049079;28;20200;-66
2023/07/03 01:52:17;;;;;;;36.07;8.33;;;26.20;46.00;;;;;;5050316;28;20235;-64
2023/07/03 01:54:50;;;;;;;37.10;8.97;;;26.10;46.00;;;;;;5044741;28;20204;-65
2023/07/03 01:57:37;;;;;;;33.33;8.27;;;26.20;46.00;;;;;;5047777;28;20189;-64
2023/07/03 02:00:09;;;;;;;30.30;7.87;;;26.10;46.00;;;;;;5049103;28;20212;-66
2023/07/03 02:02:38;;;;;;;34.30;8.30;;;26.10;46.00;;;;;;5031859;28;20853;-64
2023/07/03 02:05:09;;;;;;;34.27;8.67;;;26.10;46.00;;;;;;5030202;28;20212;-65
2023/07/03 02:07:37;;;;;;;27.10;7.53;;;26.10;46.00;;;;;;5030235;28;20196;-63
2023/07/03 02:10:05;;;;;;;36.30;8.90;;;26.10;46.10;;;;;;5040765;28;20645;-63
2023/07/03 02:12:33;;;;;;;29.17;7.67;;;26.10;46.10;;;;;;5050272;28;20223;-63
2023/07/03 02:15:03;;;;;;;35.40;8.13;;;26.10;46.10;;;;;;5049810;28;20696;-67
2023/07/03 02:17:30;;;;;;;35.73;8.17;;;26.10;46.10;;;;;;5049407;28;20629;-64
2023/07/03 02:19:57;;;;;;;30.97;7.77;;;26.10;46.10;;;;;;5042791;28;20205;-66
2023/07/03 02:22:23;;;;;;;26.27;7.73;;;26.00;46.00;;;;;;5050176;28;20216;-64
2023/07/03 02:24:50;;;;;;;34.80;8.13;;;26.00;46.10;;;;;;5049873;28;20200;-65
2023/07/03 02:27:19;;;;;;;31.83;8.03;;;26.00;46.20;;;;;;5049225;28;20247;-63
2023/07/03 02:29:49;;;;;;;38.57;8.80;;;26.00;46.20;;;;;;5035028;28;20204;-63
2023/07/03 02:32:16;;;;;;;30.83;8.27;;;26.00;46.20;;;;;;5046943;28;20763;-64
2023/07/03 02:34:43;;;;;;;48.70;9.40;;;26.00;46.20;;;;;;5047579;28;20294;-64
2023/07/03 02:37:10;;;;;;;34.87;8.23;;;26.00;46.20;;;;;;5049707;28;20215;-63
2023/07/03 02:39:37;;;;;;;28.67;7.17;;;26.00;46.20;;;;;;5047205;28;20204;-65
2023/07/03 02:42:04;;;;;;;38.83;8.93;;;26.00;46.20;;;;;;5010411;28;20198;-64
2023/07/03 02:44:31;;;;;;;50.20;9.70;;;26.00;46.30;;;;;;5009836;28;20205;-64
2023/07/03 02:46:59;;;;;;;32.90;7.87;;;26.00;46.30;;;;;;5009851;28;20209;-64
2023/07/03 02:49:29;;;;;;;34.37;8.47;;;26.00;46.40;;;;;;5023856;28;20227;-64
2023/07/03 02:51:55;;;;;;;39.13;8.17;;;26.00;46.40;;;;;;5044618;28;20262;-65
2023/07/03 02:54:23;;;;;;;40.03;9.00;;;25.90;46.30;;;;;;5050027;28;20188;-64
2023/07/03 02:56:50;;;;;;;40.87;8.53;;;25.90;46.30;;;;;;5045544;28;20211;-64
2023/07/03 02:59:16;;;;;;;39.73;9.60;;;26.00;46.40;;;;;;5044467;28;20669;-64
2023/07/03 03:01:43;;;;;;;37.53;8.27;;;25.90;46.40;;;;;;5036275;28;20195;-63
2023/07/03 03:04:12;;;;;;;31.33;7.70;;;25.90;46.40;;;;;;5047263;28;20211;-64
2023/07/03 03:06:39;;;;;;;33.67;8.83;;;25.90;46.50;;;;;;5047050;28;20200;-64
2023/07/03 03:09:06;;;;;;;34.00;8.47;;;25.90;46.50;;;;;;5049043;28;20208;-64
2023/07/03 03:11:33;;;;;;;37.30;8.30;;;25.90;46.50;;;;;;5048026;28;20194;-65
2023/07/03 03:13:59;;;;;;;34.80;8.23;;;25.90;46.50;;;;;;5048474;28;20277;-64
2023/07/03 03:16:26;;;;;;;26.33;7.10;;;25.90;46.50;;;;;;5048092;28;20224;-65
2023/07/03 03:18:53;;;;;;;44.27;9.33;;;25.80;46.50;;;;;;5030407;28;20199;-65
2023/07/03 03:21:21;;;;;;;33.43;8.13;;;25.80;46.50;;;;;;5049056;28;20188;-67
2023/07/03 03:23:48;;;;;;;35.30;7.87;;;25.80;46.60;;;;;;5048708;28;20576;-64
2023/07/03 03:26:15;;;;;;;38.63;8.43;;;25.80;46.50;;;;;;5048481;28;20211;-65
2023/07/03 03:28:42;;;;;;;37.17;8.33;;;25.80;46.50;;;;;;5047608;28;20210;-65
2023/07/03 03:31:09;;;;;;;39.30;8.30;;;25.80;46.50;;;;;;5046296;28;20196;-64
2023/07/03 03:33:36;;;;;;;33.63;7.37;;;25.80;46.50;;;;;;5046353;28;20224;-65
2023/07/03 03:36:02;;;;;;;33.03;7.93;;;25.80;47.10;;;;;;5049057;28;20227;-65
2023/07/03 03:38:30;;;;;;;35.43;8.40;;;25.80;46.50;;;;;;5045373;28;20205;-65
2023/07/03 03:40:59;;;;;;;30.40;7.70;;;25.80;46.60;;;;;;5047742;28;20200;-69
2023/07/03 03:43:26;;;;;;;37.13;8.10;;;25.80;46.60;;;;;;5048872;28;20192;-68
2023/07/03 03:45:57;;;;;;;35.60;8.10;;;25.70;46.50;;;;;;5048615;28;20207;-66
2023/07/03 03:48:24;;;;;;;34.43;8.03;;;25.70;46.50;;;;;;5047337;28;20665;-64
2023/07/03 03:50:52;;;;;;;30.93;6.90;;;25.70;46.40;;;;;;5048667;28;20283;-67
2023/07/03 03:53:19;;;;;;;41.83;8.47;;;25.70;46.40;;;;;;5048556;28;20219;-67
2023/07/03 03:55:50;;;;;;;33.93;7.60;;;25.70;46.30;;;;;;5047468;28;20200;-66
2023/07/03 03:58:17;;;;;;;31.37;7.37;;;25.60;46.30;;;;;;5044032;28;20204;-64
2023/07/03 04:00:44;;;;;;;43.50;8.67;;;25.60;46.20;;;;;;5045810;28;20574;-65
2023/07/03 04:03:11;;;;;;;34.23;7.67;;;25.60;46.20;;;;;;5048377;28;20210;-65
2023/07/03 04:05:38;;;;;;;22.80;6.70;;;25.60;46.20;;;;;;5048788;28;20199;-64
2023/07/03 04:08:05;;;;;;;33.33;7.60;;;25.60;46.20;;;;;;5047445;28;20558;-67
2023/07/03 04:10:32;;;;;;;36.13;7.57;;;25.60;46.20;;;;;;5044621;28;20201;-63
2023/07/03 04:13:00;;;;;;;27.47;7.10;;;25.60;46.20;;;;;;5035678;28;20227;-66
2023/07/03 04:15:30;;;;;;;29.37;6.80;;;25.50;46.10;;;;;;5046989;28;20660;-64
2023/07/03 04:17:57;;;;;;;30.97;6.60;;;25.50;46.10;;;;;;5048113;28;20224;-66
2023/07/03 04:20:25;;;;;;;36.73;7.27;;;25.50;46.10;;;;;;5034409;28;20205;-65
2023/07/03 04:22:52;;;;;;;29.60;7.13;;;25.50;46.10;;;;;;5038540;28;20207;-63
2023/07/03 04:25:19;;;;;;;37.93;7.27;;;25.50;46.10;;;;;;5018668;28;20205;-64
2023/07/03 04:27:46;;;;;;;40.27;8.57;;;25.50;46.10;;;;;;5033461;28;20197;-66
2023/07/03 04:30:14;;;;;;;26.03;6.57;;;25.50;46.10;;;;;;5022826;28;20220;-65
2023/07/03 04:32:41;;;;;;;39.30;7.53;;;25.40;46.00;;;;;;5007974;28;20205;-63
2023/07/03 04:35:09;;;;;;;33.47;7.30;;;25.40;46.10;;;;;;5020778;28;20674;-64
2023/07/03 04:37:37;;;;;;;31.57;7.17;;;25.40;46.00;;;;;;5027833;28;20208;-66
2023/07/03 04:40:04;;;;;;;35.10;7.50;;;25.40;46.00;;;;;;5041255;28;20250;-63
2023/07/03 04:42:32;;;;;;;31.13;7.30;;;25.40;46.00;;;;;;5013286;28;20219;-63
2023/07/03 04:45:00;;;;;;;27.07;6.70;;;25.40;46.00;;;;;;5008109;28;20197;-66
2023/07/03 04:47:28;;;;;;;32.65;6.97;;;25.40;46.00;;;;;;5015884;28;20439;-63
2023/07/03 04:49:58;;;;;;;32.07;6.67;;;25.20;46.20;;;;;;5027962;28;20197;-63
2023/07/03 04:52:27;;;;;;;40.80;7.97;;;25.20;46.20;;;;;;5028877;28;21435;-65
2023/07/03 04:54:54;;;;;;;46.40;7.80;;;25.30;46.20;;;;;;5044260;28;20235;-71
2023/07/03 04:57:21;;;;;;;33.33;6.50;;;25.30;46.20;;;;;;5044422;28;20204;-69
2023/07/03 04:59:49;;;;;;;35.73;7.00;;;25.30;46.10;;;;;;5045235;28;20215;-64
2023/07/03 05:02:17;;;;;;;31.20;6.70;;;25.30;46.00;;;;;;5036090;28;20200;-62
2023/07/03 05:04:46;;;;;;;33.57;6.83;;;25.30;46.00;;;;;;5033978;28;20249;-64
2023/07/03 05:07:13;;;;;;;34.30;6.67;;;25.30;46.00;;;;;;5036615;28;20220;-66
2023/07/03 05:09:40;;;;;;;32.33;6.27;;;25.30;46.00;;;;;;5047079;28;20210;-63
2023/07/03 05:12:08;;;;;;;49.07;8.50;;;25.30;46.00;;;;;;5044036;28;20657;-65
2023/07/03 05:14:35;;;;;;;41.63;7.70;;;25.30;46.00;;;;;;5021484;28;20214;-68
2023/07/03 05:17:03;;;;;;;29.60;6.60;;;25.20;46.00;;;;;;5018898;28;20220;-70
2023/07/03 05:19:30;;;;;;;26.63;6.47;;;25.20;46.00;;;;;;5020448;28;20208;-68
2023/07/03 05:21:58;;;;;;;50.33;8.50;;;25.20;46.00;;;;;;5021224;28;20190;-71
2023/07/03 05:24:25;;;;;;;28.93;6.37;;;25.20;46.00;;;;;;5022031;28;20577;-68
2023/07/03 05:26:52;;;;;;;29.07;6.73;;;25.20;46.60;;;;;;5028584;28;20197;-69
2023/07/03 05:29:19;;;;;;;45.87;7.77;;;25.20;46.00;;;;;;5024335;28;20645;-70
2023/07/03 05:31:46;;;;;;;54.80;8.77;;;25.20;46.00;;;;;;5026500;28;20686;-69
2023/07/03 05:34:13;;;;;;;32.77;6.67;;;25.20;46.00;;;;;;5037555;28;20809;-68
2023/07/03 05:36:39;;;;;;;32.77;7.07;;;25.20;46.00;;;;;;5047439;28;20204;-67
2023/07/03 05:39:08;;;;;;;29.90;6.73;;;25.20;46.00;;;;;;5039284;28;20210;-65
2023/07/03 05:41:35;;;;;;;31.90;6.30;;;25.20;46.00;;;;;;5026351;28;20879;-66
2023/07/03 05:44:02;;;;;;;42.53;7.77;;;25.20;46.10;;;;;;5024793;28;20205;-64
2023/07/03 05:46:28;;;;;;;44.10;8.23;;;25.20;46.10;;;;;;5027596;28;20204;-65
2023/07/03 05:48:55;;;;;;;30.73;6.57;;;25.20;46.10;;;;;;5028796;28;20201;-71
2023/07/03 05:51:22;;;;;;;42.23;7.70;;;25.20;46.10;;;;;;5027380;28;20208;-65
2023/07/03 05:53:50;;;;;;;44.40;8.93;;;25.20;46.20;;;;;;5021219;28;20223;-65
2023/07/03 05:56:19;;;;;;;45.83;8.57;;;25.20;46.20;;;;;;5024804;28;20826;-63
2023/07/03 05:58:46;;;;;;;28.17;7.77;;;25.20;46.20;;;;;;5040061;28;20562;-62
2023/07/03 06:01:13;;;;;;;32.70;7.73;;;25.20;46.20;;;;;;5038303;28;20204;-63
2023/07/03 06:03:42;;;;;;;32.20;6.93;;;25.20;46.30;;;;;;5050518;28;20200;-63
2023/07/03 06:06:09;;;;;;;60.47;9.90;;;25.20;46.80;;;;;;5038802;28;20201;-62
2023/07/03 06:08:36;;;;;;;31.67;7.17;;;25.20;46.20;;;;;;5050352;28;20211;-62
2023/07/03 06:11:03;;;;;;;40.17;7.97;;;25.20;46.20;;;;;;5050128;28;20204;-64
2023/07/03 06:13:32;;;;;;;44.80;7.93;;;25.20;46.20;;;;;;5044778;28;20627;-63
2023/07/03 06:15:59;;;;;;;30.87;6.87;;;25.20;46.20;;;;;;5050345;28;20238;-65
2023/07/03 06:18:25;;;;;;;42.70;8.17;;;25.20;46.20;;;;;;5045428;28;20202;-63
2023/07/03 06:20:52;;;;;;;35.33;7.10;;;25.20;46.30;;;;;;5031999;28;20197;-66
2023/07/03 06:23:19;;;;;;;36.70;7.07;;;25.20;46.30;;;;;;5029783;28;20642;-66
2023/07/03 06:25:46;;;;;;;26.23;6.63;;;25.30;46.30;;;;;;5010557;28;20276;-65
2023/07/03 06:28:13;;;;;;;31.60;6.67;;;25.20;46.20;;;;;;5009914;28;20283;-65
2023/07/03 06:30:47;;;;;;;49.27;8.70;;;25.30;46.30;;;;;;5009983;28;20678;-66
2023/07/03 06:33:13;;;;;;;29.07;6.27;;;25.30;46.30;;;;;;5026520;28;20940;-65
2023/07/03 06:35:40;;;;;;;29.77;6.47;;;25.30;46.30;;;;;;5019845;28;20204;-65
2023/07/03 06:38:07;;;;;;;34.40;7.13;;;25.40;47.00;;;;;;5030247;28;20207;-66
2023/07/03 06:40:34;;;;;;;27.73;6.47;;;25.40;46.40;;;;;;5033431;28;20205;-65
2023/07/03 06:43:01;;;;;;;33.00;7.07;;;25.40;46.30;;;;;;5021864;28;20197;-67
2023/07/03 06:45:28;;;;;;;36.57;7.03;;;25.40;46.30;;;;;;5028052;28;20207;-65
2023/07/03 06:47:56;;;;;;;34.70;6.77;;;25.40;46.40;;;;;;5026336;28;20555;-69
2023/07/03 06:50:23;;;;;;;26.20;6.17;;;25.40;46.30;;;;;;5010446;28;20200;-69
2023/07/03 06:52:50;;;;;;;32.73;6.57;;;25.40;46.30;;;;;;5015101;28;20263;-65
2023/07/03 06:55:17;;;;;;;35.80;6.43;;;25.50;46.40;;;;;;5026137;28;20224;-65
2023/07/03 06:57:44;;;;;;;28.20;6.80;;;25.50;46.40;;;;;;5015306;28;20288;-65
2023/07/03 07:00:12;;;;;;;34.53;7.00;;;25.50;46.40;;;;;;5028932;28;20212;-65
2023/07/03 07:02:39;;;;;;;25.17;5.87;;;25.50;46.40;;;;;;5019943;28;20326;-68
2023/07/03 07:05:08;;;;;;;26.13;5.90;;;25.50;46.40;;;;;;5015278;28;20189;-65
2023/07/03 07:07:34;;;;;;;34.27;7.10;;;25.60;46.50;;;;;;5029387;28;20211;-65
2023/07/03 07:10:01;;;;;;;35.00;7.00;;;25.60;46.50;;;;;;5029842;28;20205;-66
2023/07/03 07:12:28;;;;;;;36.80;7.13;;;25.70;46.60;;;;;;5028552;28;20211;-65
2023/07/03 07:14:55;;;;;;;20.30;5.77;;;25.70;46.50;;;;;;5029286;28;20628;-65
2023/07/03 07:17:22;;;;;;;29.97;6.57;;;25.70;46.50;;;;;;5027331;28;20236;-66
2023/07/03 07:19:49;;;;;;;43.90;7.77;;;25.70;46.50;;;;;;5027193;28;20204;-70
2023/07/03 07:22:17;;;;;;;26.73;6.33;;;25.80;46.60;;;;;;5028419;28;20642;-67
2023/07/03 07:24:44;;;;;;;33.40;6.70;;;25.80;46.60;;;;;;5027924;28;20593;-66
2023/07/03 07:27:11;;;;;;;31.30;6.07;;;25.80;46.60;;;;;;5028128;28;20226;-69
2023/07/03 07:29:39;;;;;;;30.57;6.13;;;25.90;46.70;;;;;;5027519;28;20196;-65
2023/07/03 07:32:09;;;;;;;40.33;7.30;;;25.90;46.70;;;;;;5026147;28;20292;-69
2023/07/03 07:34:36;;;;;;;30.30;6.67;;;25.90;46.60;;;;;;5018721;28;20651;-65
2023/07/03 07:37:03;;;;;;;39.10;7.53;;;25.90;46.70;;;;;;5022499;28;20212;-66
2023/07/03 07:39:31;;;;;;;42.53;7.70;;;26.00;46.70;;;;;;5026788;28;20201;-66
2023/07/03 07:41:58;;;;;;;25.23;5.27;;;26.00;46.70;;;;;;5018726;28;20204;-65
2023/07/03 07:44:26;;;;;;;31.63;6.37;;;26.00;46.70;;;;;;5023949;28;20720;-65
2023/07/03 07:46:53;;;;;;;52.00;8.40;;;26.10;46.80;;;;;;5044411;28;20575;-66
2023/07/03 07:49:20;;;;;;;34.97;7.23;;;26.10;46.80;;;;;;5010099;28;20201;-65
2023/07/03 07:51:47;;;;;;;40.73;7.13;;;26.10;46.80;;;;;;5009754;28;20281;-65
2023/07/03 07:54:14;;;;;;;37.30;7.03;;;26.20;46.80;;;;;;5026044;28;20228;-66
2023/07/03 07:56:42;;;;;;;35.13;6.93;;;26.20;46.80;;;;;;5010120;28;20205;-66
2023/07/03 07:59:09;;;;;;;28.47;6.37;;;26.20;46.80;;;;;;5023769;28;20568;-65
2023/07/03 08:01:36;;;;;;;29.40;7.03;;;26.30;46.80;;;;;;5024907;28;20692;-65
2023/07/03 08:04:03;;;;;;;22.27;6.17;;;26.30;46.70;;;;;;5027895;28;20243;-65
2023/07/03 08:06:30;;;;;;;34.30;6.30;;;26.30;46.70;;;;;;5026444;28;20201;-65
2023/07/03 08:08:57;;;;;;;29.27;6.47;;;26.30;46.70;;;;;;5027331;28;20213;-66
2023/07/03 08:11:28;;;;;;;42.07;7.23;;;26.40;46.70;;;;;;5009055;28;20224;-70
2023/07/03 08:13:56;;;;;;;48.77;8.33;;;26.40;46.70;;;;;;5007288;28;20287;-68
2023/07/03 08:16:23;;;;;;;36.87;7.00;;;26.40;46.70;;;;;;5033665;28;20220;-66
2023/07/03 08:18:50;;;;;;;41.67;7.57;;;26.40;46.70;;;;;;5047541;28;20212;-66
2023/07/03 08:21:17;;;;;;;30.17;6.63;;;26.40;46.70;;;;;;5034112;28;20215;-69
2023/07/03 08:23:44;;;;;;;32.80;6.50;;;26.50;46.70;;;;;;5028005;28;20296;-67
2023/07/03 08:26:18;;;;;;;36.27;6.87;;;26.50;46.70;;;;;;5026471;28;20208;-68
2023/07/03 08:28:44;;;;;;;27.03;5.63;;;26.50;46.70;;;;;;5027825;28;20275;-65
2023/07/03 08:31:13;;;;;;;34.63;6.73;;;26.50;46.70;;;;;;5027045;28;20197;-67
2023/07/03 08:33:39;;;;;;;31.23;6.37;;;26.60;46.70;;;;;;5037367;28;20570;-66
2023/07/03 08:36:07;;;;;;;29.10;6.47;;;26.60;46.80;;;;;;5018269;28;20235;-65
2023/07/03 08:38:33;;;;;;;32.83;6.30;;;26.60;46.70;;;;;;5015378;28;20201;-70
2023/07/03 08:41:02;;;;;;;36.17;6.80;;;26.60;46.60;;;;;;5032627;28;20201;-70
2023/07/03 08:43:33;;;;;;;35.80;7.03;;;26.60;46.60;;;;;;5017164;28;20204;-66
2023/07/03 08:46:02;;;;;;;29.70;5.90;;;26.70;46.70;;;;;;5027556;28;20292;-71
2023/07/03 08:48:34;;;;;;;37.87;7.33;;;26.70;46.60;;;;;;5025729;28;20216;-68
2023/07/03 08:51:04;;;;;;;25.97;6.13;;;26.70;46.60;;;;;;5011065;28;20209;-72
2023/07/03 08:53:36;;;;;;;34.37;6.83;;;26.70;46.50;;;;;;5020067;28;20201;-67
2023/07/03 08:56:09;;;;;;;27.53;6.27;;;26.70;46.50;;;;;;5022573;28;20264;-67
2023/07/03 08:58:36;;;;;;;34.07;6.60;;;26.80;46.50;;;;;;5018984;28;20196;-71
2023/07/03 09:01:10;;;;;;;46.67;7.93;;;26.80;46.40;;;;;;5024027;28;20658;-66
2023/07/03 09:03:58;;;;;;;29.00;6.13;;;26.80;46.30;;;;;;5027296;28;20300;-62
2023/07/03 09:06:31;;;;;;;57.47;8.37;;;26.80;46.20;;;;;;5015251;28;20213;-70
2023/07/03 09:09:04;;;;;;;52.93;8.60;;;26.80;46.10;;;;;;5022930;28;20201;-67
2023/07/03 09:11:35;;;;;;;54.67;8.87;;;26.80;46.10;;;;;;5017924;28;20665;-68
2023/07/03 09:14:03;;;;;;;48.77;7.90;;;26.80;46.20;;;;;;5017095;28;20201;-67
2023/07/03 09:16:31;;;;;;;24.73;5.73;;;26.80;46.10;;;;;;5020268;28;20220;-69
2023/07/03 09:19:05;;;;;;;44.33;7.40;;;26.80;46.00;;;;;;5038553;28;20603;-64
2023/07/03 09:21:34;;;;;;;29.57;6.17;;;26.80;46.00;;;;;;5036402;28;20671;-64
2023/07/03 09:24:07;;;;;;;40.07;7.10;;;26.80;46.10;;;;;;5030203;28;20205;-64
2023/07/03 09:26:39;;;;;;;34.43;6.77;;;26.80;46.10;;;;;;5046473;28;20207;-65
2023/07/03 09:29:06;;;;;;;24.50;5.60;;;26.80;46.10;;;;;;5028747;28;20209;-65
2023/07/03 09:31:33;;;;;;;24.00;5.20;;;26.80;46.00;;;;;;5027701;28;20205;-65
2023/07/03 09:34:01;;;;;;;41.30;7.07;;;26.80;46.10;;;;;;5009888;28;20208;-67
2023/07/03 09:36:34;;;;;;;34.43;6.37;;;26.80;46.00;;;;;;5018832;28;20580;-67
2023/07/03 09:39:09;;;;;;;39.57;6.67;;;26.80;45.90;;;;;;5021350;28;20201;-67
2023/07/03 09:41:36;;;;;;;39.00;6.63;;;26.80;45.90;;;;;;5023694;28;20217;-68
2023/07/03 09:44:07;;;;;;;34.67;6.50;;;26.80;45.90;;;;;;5026435;28;20930;-64
2023/07/03 09:46:35;;;;;;;31.07;6.67;;;26.80;45.80;;;;;;5023660;28;20201;-65
2023/07/03 09:49:04;;;;;;;47.60;7.70;;;26.90;45.80;;;;;;5028389;28;20208;-64
2023/07/03 09:51:32;;;;;;;45.00;7.20;;;26.90;45.80;;;;;;5025648;28;20208;-64
2023/07/03 09:54:05;;;;;;;33.53;6.93;;;26.90;45.80;;;;;;5010931;28;20210;-64
2023/07/03 09:56:32;;;;;;;32.10;6.37;;;26.90;45.70;;;;;;5026740;28;20247;-63
2023/07/03 09:59:01;;;;;;;31.60;6.17;;;26.90;45.80;;;;;;5030018;28;20201;-64
2023/07/03 10:01:30;;;;;;;29.00;5.97;;;26.90;45.70;;;;;;5029165;28;20644;-65
2023/07/03 10:04:08;;;;;;;32.23;6.27;;;26.90;45.70;;;;;;5026858;28;20204;-65
2023/07/03 10:06:36;;;;;;;26.33;5.43;;;26.90;45.70;;;;;;5024669;28;20205;-63
2023/07/03 10:09:06;;;;;;;28.33;5.93;;;26.90;45.60;;;;;;5012535;28;20197;-64
2023/07/03 10:11:41;;;;;;;28.90;6.03;;;26.90;45.40;;;;;;5018880;28;20201;-64
2023/07/03 10:14:15;;;;;;;26.63;5.93;;;26.90;45.40;;;;;;5028817;28;20214;-64
2023/07/03 10:16:43;;;;;;;27.67;5.63;;;26.90;45.40;;;;;;5010383;28;20237;-69
2023/07/03 10:19:11;;;;;;;58.03;8.17;;;26.90;45.40;;;;;;5009530;28;20223;-68
2023/07/03 10:21:40;;;;;;;44.97;7.37;;;27.00;45.30;;;;;;5023213;28;20547;-63
2023/07/03 10:24:09;;;;;;;35.47;6.27;;;27.00;45.40;;;;;;5038611;28;20203;-63
2023/07/03 10:26:42;;;;;;;29.07;5.93;;;27.00;45.40;;;;;;5044653;28;20205;-64
2023/07/03 10:29:13;;;;;;;31.83;5.97;;;27.00;45.40;;;;;;5024683;28;20220;-65
2023/07/03 10:31:46;;;;;;;24.73;4.97;;;27.00;45.50;;;;;;5030857;28;20728;-62
2023/07/03 10:34:27;;;;;;;28.87;5.63;;;27.00;45.40;;;;;;5013964;28;20252;-64
2023/07/03 10:37:01;;;;;;;41.53;8.43;;;27.00;45.30;;;;;;5019058;28;20484;-64
2023/07/03 10:39:36;;;;;;;24.30;6.47;;;27.00;44.80;;;;;;5040523;28;20239;-63
2023/07/03 10:42:06;;;;;;;35.63;6.97;;;27.00;45.00;;;;;;5049405;28;20567;-63
2023/07/03 10:44:37;;;;;;;42.80;7.77;;;27.10;45.00;;;;;;5045231;28;20555;-63
2023/07/03 10:47:10;;;;;;;27.00;5.73;;;27.10;45.10;;;;;;5040781;28;20211;-64
2023/07/03 10:49:39;;;;;;;27.57;6.20;;;27.20;44.90;;;;;;5045458;28;20236;-66
2023/07/03 10:52:15;;;;;;;37.23;6.40;;;27.30;44.70;;;;;;5028979;28;20204;-65
2023/07/03 10:54:50;;;;;;;33.97;6.10;;;27.30;44.40;;;;;;5028146;28;20676;-66
2023/07/03 10:57:23;;;;;;;41.20;7.47;;;27.40;44.30;;;;;;5028952;28;20204;-64
2023/07/03 10:59:55;;;;;;;32.10;5.87;;;27.40;44.40;;;;;;5023841;28;20205;-70
2023/07/03 11:02:30;;;;;;;36.07;6.90;;;27.40;44.40;;;;;;5019264;28;20204;-68
2023/07/03 11:05:10;;;;;;;28.00;5.30;;;27.40;44.30;;;;;;5043468;28;20842;-72
2023/07/03 11:07:43;;;;;;;32.63;5.93;;;27.40;44.10;;;;;;5009038;28;20201;-65
2023/07/03 11:10:20;;;;;;;46.65;7.75;;;27.40;43.90;;;;;;5026235;28;20447;-70
2023/07/03 11:12:53;;;;;;;35.90;6.27;;;27.30;43.40;;;;;;5022514;28;20537;-72
2023/07/03 11:15:29;;;;;;;34.47;6.13;;;27.30;44.20;;;;;;5027680;28;20661;-70
2023/07/03 11:18:06;;;;;;;22.67;4.97;;;27.30;44.10;;;;;;5016911;28;20200;-67
2023/07/03 11:20:40;;;;;;;45.87;7.40;;;27.40;44.30;;;;;;5008995;28;20209;-71
2023/07/03 11:23:15;;;;;;;18.83;4.47;;;27.40;44.80;;;;;;5021258;28;20575;-66
2023/07/03 11:25:49;;;;;;;30.63;6.00;;;27.40;44.50;;;;;;5008900;28;20204;-70
2023/07/03 11:28:27;;;;;;;28.80;5.63;;;27.40;44.60;;;;;;5016074;28;20208;-70
2023/07/03 11:30:54;;;;;;;30.23;5.90;;;27.50;44.90;;;;;;5010312;28;20205;-70
2023/07/03 11:33:22;;;;;;;58.80;8.43;;;27.50;45.00;;;;;;5011250;28;20200;-70
2023/07/03 11:35:54;;;;;;;24.27;5.20;;;27.60;45.30;;;;;;5031620;28;20239;-67
2023/07/03 11:38:22;;;;;;;34.10;5.90;;;27.70;44.90;;;;;;5028426;28;20582;-71
2023/07/03 11:41:03;;;;;;;34.90;5.97;;;27.80;44.80;;;;;;5012463;28;20204;-67
2023/07/03 11:43:34;;;;;;;26.37;5.27;;;27.90;44.90;;;;;;5026873;28;20668;-69
2023/07/03 11:46:17;;;;;;;32.33;6.00;;;28.00;44.20;;;;;;5028520;28;20195;-70
2023/07/03 11:48:48;;;;;;;26.00;5.43;;;28.10;43.90;;;;;;5028099;28;20204;-70
2023/07/03 11:51:30;;;;;;;32.80;5.83;;;28.30;43.70;;;;;;5008680;28;20201;-73
2023/07/03 11:53:58;;;;;;;39.77;6.73;;;28.40;43.50;;;;;;5012964;28;20254;-65
2023/07/03 11:56:45;;;;;;;112.53;13.20;;;28.50;43.20;;;;;;5009502;28;20231;-67
2023/07/03 11:59:25;;;;;;;36.63;6.30;;;28.60;42.60;;;;;;5012607;28;20217;-65
2023/07/03 12:01:52;;;;;;;32.57;6.13;;;28.60;42.30;;;;;;5032209;28;20221;-66
2023/07/03 12:04:50;;;;;;;33.40;6.00;;;28.80;42.60;;;;;;5016186;28;20204;-66
2023/07/03 12:07:49;;;;;;;27.70;5.67;;;28.80;41.80;;;;;;5011638;28;20248;-70
2023/07/03 12:10:57;;;;;;;26.70;5.73;;;29.00;42.20;;;;;;5020904;28;20262;-67
2023/07/03 12:13:52;;;;;;;27.17;5.53;;;29.00;42.00;;;;;;4969478;28;20233;-70
2023/07/03 12:16:24;;;;;;;26.90;5.67;;;29.10;41.60;;;;;;5013815;28;20243;-66
2023/07/03 12:19:00;;;;;;;40.97;6.53;;;29.30;42.20;;;;;;5010383;28;20654;-66
2023/07/03 12:21:35;;;;;;;32.83;6.03;;;29.30;41.70;;;;;;5023338;28;20666;-67
2023/07/03 12:24:21;;;;;;;31.63;6.00;;;29.30;42.10;;;;;;5013456;28;20641;-66
2023/07/03 12:26:57;;;;;;;29.63;5.93;;;29.40;41.50;;;;;;5025487;28;20205;-65
2023/07/03 12:29:24;;;;;;;22.80;5.03;;;29.50;41.70;;;;;;5028835;28;20185;-64
2023/07/03 12:31:56;;;;;;;36.13;6.13;;;29.60;41.50;;;;;;5011743;28;20662;-65
2023/07/03 12:34:26;;;;;;;36.27;6.53;;;29.70;41.10;;;;;;5035206;28;20208;-65
2023/07/03 12:36:59;;;;;;;26.30;5.50;;;29.80;41.20;;;;;;5029889;28;20231;-63
2023/07/03 12:39:27;;;;;;;26.50;5.90;;;29.80;40.40;;;;;;5029870;28;20255;-66
2023/07/03 12:41:54;;;;;;;33.13;6.47;;;29.90;40.70;;;;;;5024153;28;20546;-60
2023/07/03 12:44:23;;;;;;;32.60;6.07;;;29.90;40.60;;;;;;5048695;28;20210;-64
2023/07/03 12:46:52;;;;;;;24.37;5.20;;;30.00;40.40;;;;;;5023465;28;20292;-65